sensor_id;sensor_type;location;lat;lon;timestamp;P1;durP1;ratioP1;P2;durP2;ratioP2
74568;SDS011;63052;50.266;7.968;2022-11-03T00:00:03;4.60;;;1.73;;
74568;SDS011;63052;50.266;7.968;2022-11-03T00:10:06;6.27;;;1.90;;
74568;SDS011;63052;50.266;7.968;2022-11-03T00:20:09;4.23;;;2.03;;
74568;SDS011;63052;50.266;7.968;2022-11-03T00:30:12;6.83;;;2.00;;
74568;SDS011;63052;50.266;7.968;2022-11-03T00:40:14;6.53;;;2.00;;
74568;SDS011;63052;50.266;7.968;2022-11-03T00:50:17;3.10;;;1.70;;
74568;SDS011;63052;50.266;7.968;2022-11-03T01:00:20;7.50;;;2.10;;
74568;SDS011;63052;50.266;7.968;2022-11-03T01:10:22;6.53;;;2.03;;
74568;SDS011;63052;50.266;7.968;2022-11-03T01:20:24;3.57;;;1.43;;
74568;SDS011;63052;50.266;7.968;2022-11-03T01:30:27;6.90;;;1.80;;
74568;SDS011;63052;50.266;7.968;2022-11-03T01:40:30;5.00;;;1.80;;
74568;SDS011;63052;50.266;7.968;2022-11-03T01:50:33;5.70;;;1.90;;
74568;SDS011;63052;50.266;7.968;2022-11-03T02:00:35;5.50;;;1.87;;
74568;SDS011;63052;50.266;7.968;2022-11-03T02:10:39;4.40;;;1.47;;
74568;SDS011;63052;50.266;7.968;2022-11-03T02:20:41;3.27;;;1.50;;
74568;SDS011;63052;50.266;7.968;2022-11-03T02:31:01;3.47;;;1.50;;
74568;SDS011;63052;50.266;7.968;2022-11-03T02:41:05;4.33;;;2.00;;
74568;SDS011;63052;50.266;7.968;2022-11-03T02:51:09;5.67;;;1.83;;
74568;SDS011;63052;50.266;7.968;2022-11-03T03:11:26;5.33;;;1.60;;
74568;SDS011;63052;50.266;7.968;2022-11-03T03:21:38;4.13;;;1.77;;
74568;SDS011;63052;50.266;7.968;2022-11-03T03:31:44;6.27;;;1.77;;
74568;SDS011;63052;50.266;7.968;2022-11-03T03:41:49;3.47;;;1.60;;
74568;SDS011;63052;50.266;7.968;2022-11-03T03:51:53;3.53;;;1.43;;
74568;SDS011;63052;50.266;7.968;2022-11-03T04:01:56;4.90;;;1.80;;
74568;SDS011;63052;50.266;7.968;2022-11-03T04:11:59;6.47;;;1.80;;
74568;SDS011;63052;50.266;7.968;2022-11-03T04:22:19;7.80;;;1.87;;
74568;SDS011;63052;50.266;7.968;2022-11-03T04:32:22;3.53;;;1.50;;
74568;SDS011;63052;50.266;7.968;2022-11-03T04:42:24;6.97;;;2.20;;
74568;SDS011;63052;50.266;7.968;2022-11-03T04:52:27;3.67;;;1.77;;
74568;SDS011;63052;50.266;7.968;2022-11-03T05:02:31;3.17;;;1.50;;
74568;SDS011;63052;50.266;7.968;2022-11-03T05:12:33;7.30;;;1.67;;
74568;SDS011;63052;50.266;7.968;2022-11-03T05:22:36;3.60;;;1.57;;
74568;SDS011;63052;50.266;7.968;2022-11-03T05:32:39;3.50;;;1.60;;
74568;SDS011;63052;50.266;7.968;2022-11-03T05:42:42;4.73;;;2.13;;
74568;SDS011;63052;50.266;7.968;2022-11-03T05:52:47;8.30;;;2.43;;
74568;SDS011;63052;50.266;7.968;2022-11-03T06:02:52;5.97;;;1.97;;
74568;SDS011;63052;50.266;7.968;2022-11-03T06:12:56;4.87;;;1.77;;
74568;SDS011;63052;50.266;7.968;2022-11-03T06:23:18;2.47;;;1.43;;
74568;SDS011;63052;50.266;7.968;2022-11-03T06:33:26;6.67;;;1.63;;
74568;SDS011;63052;50.266;7.968;2022-11-03T06:43:33;4.10;;;1.97;;
74568;SDS011;63052;50.266;7.968;2022-11-03T06:53:43;5.40;;;2.00;;
74568;SDS011;63052;50.266;7.968;2022-11-03T07:03:45;8.97;;;2.87;;
74568;SDS011;63052;50.266;7.968;2022-11-03T07:13:56;4.67;;;2.30;;
74568;SDS011;63052;50.266;7.968;2022-11-03T07:24:02;9.07;;;2.30;;
74568;SDS011;63052;50.266;7.968;2022-11-03T07:34:08;8.23;;;3.43;;
74568;SDS011;63052;50.266;7.968;2022-11-03T07:44:15;8.67;;;2.60;;
74568;SDS011;63052;50.266;7.968;2022-11-03T07:54:23;7.00;;;2.77;;
74568;SDS011;63052;50.266;7.968;2022-11-03T08:04:31;5.23;;;2.63;;
74568;SDS011;63052;50.266;7.968;2022-11-03T08:14:35;8.37;;;2.90;;
74568;SDS011;63052;50.266;7.968;2022-11-03T08:24:38;5.53;;;2.57;;
74568;SDS011;63052;50.266;7.968;2022-11-03T08:34:40;8.27;;;2.90;;
74568;SDS011;63052;50.266;7.968;2022-11-03T08:44:43;6.70;;;2.93;;
74568;SDS011;63052;50.266;7.968;2022-11-03T08:54:45;7.87;;;2.90;;
74568;SDS011;63052;50.266;7.968;2022-11-03T09:04:48;6.40;;;2.53;;
74568;SDS011;63052;50.266;7.968;2022-11-03T09:14:50;9.73;;;3.10;;
74568;SDS011;63052;50.266;7.968;2022-11-03T09:24:53;7.37;;;2.80;;
74568;SDS011;63052;50.266;7.968;2022-11-03T09:34:55;7.13;;;3.00;;
74568;SDS011;63052;50.266;7.968;2022-11-03T09:44:58;5.23;;;2.07;;
74568;SDS011;63052;50.266;7.968;2022-11-03T09:55:01;7.33;;;3.17;;
74568;SDS011;63052;50.266;7.968;2022-11-03T10:05:04;7.53;;;3.30;;
74568;SDS011;63052;50.266;7.968;2022-11-03T10:15:16;7.07;;;4.07;;
74568;SDS011;63052;50.266;7.968;2022-11-03T10:26:19;10.17;;;4.10;;
74568;SDS011;63052;50.266;7.968;2022-11-03T10:35:33;7.40;;;2.73;;
74568;SDS011;63052;50.266;7.968;2022-11-03T10:45:35;7.10;;;3.43;;
74568;SDS011;63052;50.266;7.968;2022-11-03T10:55:38;9.20;;;3.30;;
74568;SDS011;63052;50.266;7.968;2022-11-03T11:05:45;8.97;;;3.57;;
74568;SDS011;63052;50.266;7.968;2022-11-03T11:15:53;9.67;;;2.90;;
74568;SDS011;63052;50.266;7.968;2022-11-03T11:36:21;6.07;;;2.87;;
74568;SDS011;63052;50.266;7.968;2022-11-03T11:46:32;6.77;;;2.80;;
74568;SDS011;63052;50.266;7.968;2022-11-03T11:56:43;7.40;;;2.63;;
74568;SDS011;63052;50.266;7.968;2022-11-03T12:06:48;6.60;;;2.60;;
74568;SDS011;63052;50.266;7.968;2022-11-03T12:16:51;7.93;;;2.67;;
74568;SDS011;63052;50.266;7.968;2022-11-03T12:26:53;8.40;;;3.07;;
74568;SDS011;63052;50.266;7.968;2022-11-03T12:36:56;4.03;;;2.40;;
74568;SDS011;63052;50.266;7.968;2022-11-03T12:46:59;8.33;;;2.83;;
74568;SDS011;63052;50.266;7.968;2022-11-03T12:57:02;7.40;;;2.60;;
74568;SDS011;63052;50.266;7.968;2022-11-03T13:07:04;8.57;;;3.30;;
74568;SDS011;63052;50.266;7.968;2022-11-03T13:17:07;10.70;;;3.37;;
74568;SDS011;63052;50.266;7.968;2022-11-03T13:27:09;12.40;;;4.33;;
74568;SDS011;63052;50.266;7.968;2022-11-03T13:37:12;9.77;;;3.90;;
74568;SDS011;63052;50.266;7.968;2022-11-03T13:47:14;8.43;;;3.37;;
74568;SDS011;63052;50.266;7.968;2022-11-03T13:57:17;8.20;;;3.20;;
74568;SDS011;63052;50.266;7.968;2022-11-03T14:07:19;10.73;;;4.43;;
74568;SDS011;63052;50.266;7.968;2022-11-03T14:17:22;12.93;;;4.77;;
74568;SDS011;63052;50.266;7.968;2022-11-03T14:27:25;8.67;;;4.10;;
74568;SDS011;63052;50.266;7.968;2022-11-03T14:37:27;7.50;;;3.17;;
74568;SDS011;63052;50.266;7.968;2022-11-03T14:47:30;8.27;;;3.23;;
74568;SDS011;63052;50.266;7.968;2022-11-03T14:57:32;6.87;;;3.43;;
74568;SDS011;63052;50.266;7.968;2022-11-03T15:07:35;5.93;;;2.80;;
74568;SDS011;63052;50.266;7.968;2022-11-03T15:17:37;6.43;;;2.60;;
74568;SDS011;63052;50.266;7.968;2022-11-03T15:27:40;4.83;;;2.67;;
74568;SDS011;63052;50.266;7.968;2022-11-03T15:37:42;5.40;;;2.60;;
74568;SDS011;63052;50.266;7.968;2022-11-03T15:47:45;6.33;;;2.53;;
74568;SDS011;63052;50.266;7.968;2022-11-03T15:57:48;6.87;;;2.67;;
74568;SDS011;63052;50.266;7.968;2022-11-03T16:07:52;4.07;;;2.40;;
74568;SDS011;63052;50.266;7.968;2022-11-03T16:17:55;8.67;;;3.10;;
74568;SDS011;63052;50.266;7.968;2022-11-03T16:27:59;7.63;;;3.00;;
74568;SDS011;63052;50.266;7.968;2022-11-03T16:38:02;6.53;;;3.13;;
74568;SDS011;63052;50.266;7.968;2022-11-03T16:48:05;9.80;;;3.50;;
74568;SDS011;63052;50.266;7.968;2022-11-03T16:58:08;6.30;;;3.37;;
74568;SDS011;63052;50.266;7.968;2022-11-03T17:08:10;7.03;;;3.53;;
74568;SDS011;63052;50.266;7.968;2022-11-03T17:18:13;7.27;;;3.60;;
74568;SDS011;63052;50.266;7.968;2022-11-03T17:28:15;7.60;;;3.00;;
74568;SDS011;63052;50.266;7.968;2022-11-03T17:38:18;9.00;;;4.30;;
74568;SDS011;63052;50.266;7.968;2022-11-03T17:48:21;8.77;;;3.60;;
74568;SDS011;63052;50.266;7.968;2022-11-03T17:58:25;8.93;;;3.73;;
74568;SDS011;63052;50.266;7.968;2022-11-03T18:08:29;9.57;;;4.17;;
74568;SDS011;63052;50.266;7.968;2022-11-03T18:18:38;4.73;;;2.70;;
74568;SDS011;63052;50.266;7.968;2022-11-03T18:28:37;3.77;;;2.60;;
74568;SDS011;63052;50.266;7.968;2022-11-03T18:38:40;5.07;;;2.83;;
74568;SDS011;63052;50.266;7.968;2022-11-03T18:48:43;9.97;;;3.40;;
74568;SDS011;63052;50.266;7.968;2022-11-03T18:58:46;6.90;;;3.00;;
74568;SDS011;63052;50.266;7.968;2022-11-03T19:08:53;5.67;;;2.80;;
74568;SDS011;63052;50.266;7.968;2022-11-03T19:18:57;7.20;;;3.23;;
74568;SDS011;63052;50.266;7.968;2022-11-03T19:29:01;4.57;;;2.73;;
74568;SDS011;63052;50.266;7.968;2022-11-03T19:39:06;4.97;;;2.40;;
74568;SDS011;63052;50.266;7.968;2022-11-03T19:49:12;6.83;;;3.03;;
74568;SDS011;63052;50.266;7.968;2022-11-03T19:59:15;4.27;;;2.60;;
74568;SDS011;63052;50.266;7.968;2022-11-03T20:09:18;5.40;;;2.20;;
74568;SDS011;63052;50.266;7.968;2022-11-03T20:19:22;3.53;;;2.00;;
74568;SDS011;63052;50.266;7.968;2022-11-03T20:29:25;5.57;;;2.10;;
74568;SDS011;63052;50.266;7.968;2022-11-03T20:39:27;5.73;;;3.20;;
74568;SDS011;63052;50.266;7.968;2022-11-03T20:49:30;5.53;;;2.70;;
74568;SDS011;63052;50.266;7.968;2022-11-03T20:59:32;5.60;;;2.43;;
74568;SDS011;63052;50.266;7.968;2022-11-03T21:09:35;4.33;;;2.07;;
74568;SDS011;63052;50.266;7.968;2022-11-03T21:19:38;5.27;;;2.50;;
74568;SDS011;63052;50.266;7.968;2022-11-03T21:29:59;2.20;;;1.90;;
74568;SDS011;63052;50.266;7.968;2022-11-03T21:40:01;5.27;;;2.03;;
74568;SDS011;63052;50.266;7.968;2022-11-03T21:50:04;4.10;;;1.73;;
74568;SDS011;63052;50.266;7.968;2022-11-03T22:00:07;2.27;;;1.60;;
74568;SDS011;63052;50.266;7.968;2022-11-03T22:10:10;3.73;;;1.97;;
74568;SDS011;63052;50.266;7.968;2022-11-03T22:20:13;2.07;;;1.50;;
74568;SDS011;63052;50.266;7.968;2022-11-03T22:30:37;2.37;;;1.90;;
74568;SDS011;63052;50.266;7.968;2022-11-03T22:40:58;2.50;;;2.03;;
74568;SDS011;63052;50.266;7.968;2022-11-03T22:51:14;4.33;;;2.50;;
74568;SDS011;63052;50.266;7.968;2022-11-03T23:01:18;3.00;;;1.80;;
74568;SDS011;63052;50.266;7.968;2022-11-03T23:11:29;2.87;;;1.60;;
74568;SDS011;63052;50.266;7.968;2022-11-03T23:21:30;2.93;;;1.60;;
74568;SDS011;63052;50.266;7.968;2022-11-03T23:31:34;2.63;;;1.37;;
74568;SDS011;63052;50.266;7.968;2022-11-03T23:41:37;2.17;;;1.50;;
74568;SDS011;63052;50.266;7.968;2022-11-03T23:51:40;3.03;;;1.60;;
